PWSweather.com
Personal Weather Stations
Station Observations

SaroSE

Lat: 57.5222, Lon: 11.947

Elevation: 35

Station Type: Davis VP2

http://www.lokaltvader.se/

High Low Average
Temperature 65.3°F18.5°C 46.8°F8.2°C 56.8°F13.8°C
Dew Point 58.7°F14.8°C 45.7°F7.6°C 54.4°F12.4°C
Winds 9.2 mph 14.8 kmh Calm Calm 3.0 mph SW4.8 kmh SW
Wind Gusts 10.4 mph16.7 kmh -- 5.0 mph8.0 kmh
Humidity 97% 74% 92%
Pressure 30.10 in1019.3 mb 30.02 in1016.6 mb -
Precipitation 0.01 in0.3 mm - -
Hour Temp Dew Point Humidity Winds Wind Gusts Pressure Precip Precip Rate Daily Precip Total
12:00 AM 55.9°F13.3°C 54.2°F12.3°C 94% 6.9 mph W11.1 kmh W 6.9 mph11.1 kmh 30.05 in1017.6 mb - 0.00 in0.0 mm 0.00 in0.0 mm
12:15 AM 56.1°F13.4°C 54.7°F12.6°C 95% 6.9 mph W11.1 kmh W 10.4 mph16.7 kmh 30.05 in1017.6 mb - 0.00 in0.0 mm 0.00 in0.0 mm
12:30 AM 55.9°F13.3°C 54.5°F12.5°C 95% 5.8 mph WNW9.3 kmh WNW 6.9 mph11.1 kmh 30.05 in1017.6 mb - 0.00 in0.0 mm 0.00 in0.0 mm
12:45 AM 56.1°F13.4°C 54.7°F12.6°C 95% 5.8 mph W9.3 kmh W 6.9 mph11.1 kmh 30.05 in1017.6 mb - 0.00 in0.0 mm 0.00 in0.0 mm
01:00 AM 56.0°F13.3°C 54.6°F12.6°C 95% 5.8 mph WNW9.3 kmh WNW 8.1 mph13.0 kmh 30.05 in1017.6 mb - 0.00 in0.0 mm 0.00 in0.0 mm
01:15 AM 56.0°F13.3°C 54.6°F12.6°C 95% 2.3 mph NW3.7 kmh NW 4.6 mph7.4 kmh 30.05 in1017.6 mb - 0.00 in0.0 mm 0.00 in0.0 mm
01:30 AM 56.0°F13.3°C 54.6°F12.6°C 95% 4.6 mph NW7.4 kmh NW 4.6 mph7.4 kmh 30.05 in1017.6 mb - 0.00 in0.0 mm 0.00 in0.0 mm
01:45 AM 55.8°F13.2°C 54.4°F12.4°C 95% 5.8 mph NW9.3 kmh NW 8.1 mph13.0 kmh 30.05 in1017.6 mb - 0.00 in0.0 mm 0.00 in0.0 mm
02:00 AM 55.9°F13.3°C 54.5°F12.5°C 95% 3.5 mph WNW5.6 kmh WNW 3.5 mph5.6 kmh 30.05 in1017.6 mb - 0.00 in0.0 mm 0.00 in0.0 mm
02:15 AM 55.6°F13.1°C 54.2°F12.3°C 95% Calm Calm -- 30.05 in1017.6 mb - 0.00 in0.0 mm 0.00 in0.0 mm
02:30 AM 55.4°F13.0°C 54.0°F12.2°C 95% 3.5 mph WNW5.6 kmh WNW 6.9 mph11.1 kmh 30.05 in1017.6 mb - 0.00 in0.0 mm 0.00 in0.0 mm
02:45 AM 55.3°F12.9°C 53.9°F12.2°C 95% 4.6 mph NW7.4 kmh NW 4.6 mph7.4 kmh 30.05 in1017.6 mb - 0.00 in0.0 mm 0.00 in0.0 mm
03:00 AM 53.8°F12.1°C 52.4°F11.3°C 95% 4.6 mph NW7.4 kmh NW 8.1 mph13.0 kmh 30.05 in1017.6 mb - 0.01 in0.3 mm 0.01 in0.3 mm
03:15 AM 52.6°F11.4°C 50.9°F10.5°C 94% 4.6 mph NW7.4 kmh NW 6.9 mph11.1 kmh 30.05 in1017.6 mb - 0.01 in0.3 mm 0.01 in0.3 mm
03:30 AM 50.7°F10.4°C 49.3°F9.6°C 95% 2.3 mph NW3.7 kmh NW 2.3 mph3.7 kmh 30.05 in1017.6 mb - 0.01 in0.3 mm 0.01 in0.3 mm
03:45 AM 50.8°F10.4°C 49.4°F9.7°C 95% Calm Calm -- 30.05 in1017.6 mb - 0.01 in0.3 mm 0.01 in0.3 mm
04:00 AM 50.1°F10.1°C 48.7°F9.3°C 95% Calm Calm -- 30.05 in1017.6 mb - 0.00 in0.0 mm 0.01 in0.3 mm
04:15 AM 50.0°F10.0°C 48.9°F9.4°C 96% Calm Calm -- 30.05 in1017.6 mb - 0.00 in0.0 mm 0.01 in0.3 mm
04:30 AM 50.0°F10.0°C 48.6°F9.2°C 95% Calm Calm -- 30.05 in1017.6 mb - 0.00 in0.0 mm 0.01 in0.3 mm
04:45 AM 48.8°F9.3°C 47.4°F8.6°C 95% Calm Calm -- 30.05 in1017.6 mb - 0.00 in0.0 mm 0.01 in0.3 mm
05:00 AM 48.3°F9.1°C 46.9°F8.3°C 95% Calm Calm -- 30.05 in1017.6 mb - 0.00 in0.0 mm 0.01 in0.3 mm
05:15 AM 47.8°F8.8°C 46.4°F8.0°C 95% Calm Calm -- 30.05 in1017.6 mb - 0.00 in0.0 mm 0.01 in0.3 mm
05:30 AM 47.2°F8.4°C 45.9°F7.7°C 95% Calm Calm -- 30.05 in1017.6 mb - 0.00 in0.0 mm 0.01 in0.3 mm
05:45 AM 47.5°F8.6°C 46.4°F8.0°C 96% Calm Calm -- 30.06 in1017.9 mb - 0.00 in0.0 mm 0.01 in0.3 mm
06:00 AM 46.8°F8.2°C 45.7°F7.6°C 96% Calm Calm -- 30.06 in1017.9 mb - 0.00 in0.0 mm 0.01 in0.3 mm
06:15 AM 46.9°F8.3°C 45.8°F7.7°C 96% Calm Calm -- 30.06 in1017.9 mb - 0.00 in0.0 mm 0.01 in0.3 mm
06:30 AM 47.6°F8.7°C 46.5°F8.1°C 96% Calm Calm -- 30.06 in1017.9 mb - 0.00 in0.0 mm 0.01 in0.3 mm
06:45 AM 49.1°F9.5°C 48.3°F9.1°C 97% Calm Calm -- 30.06 in1017.9 mb - 0.00 in0.0 mm 0.01 in0.3 mm
07:00 AM 49.8°F9.9°C 48.7°F9.3°C 96% Calm Calm -- 30.06 in1017.9 mb - 0.00 in0.0 mm 0.01 in0.3 mm
07:15 AM 50.6°F10.3°C 49.8°F9.9°C 97% Calm Calm -- 30.06 in1017.9 mb - 0.00 in0.0 mm 0.01 in0.3 mm
07:30 AM 52.4°F11.3°C 51.6°F10.9°C 97% Calm Calm -- 30.07 in1018.3 mb - 0.00 in0.0 mm 0.01 in0.3 mm
07:45 AM 52.9°F11.6°C 52.1°F11.2°C 97% 3.5 mph ESE5.6 kmh ESE 3.5 mph5.6 kmh 30.07 in1018.3 mb - 0.00 in0.0 mm 0.01 in0.3 mm
08:00 AM 53.9°F12.2°C 53.1°F11.7°C 97% Calm Calm -- 30.07 in1018.3 mb - 0.00 in0.0 mm 0.01 in0.3 mm
08:15 AM 54.7°F12.6°C 53.9°F12.2°C 97% 4.6 mph SSE7.4 kmh SSE 5.8 mph9.3 kmh 30.07 in1018.3 mb - 0.00 in0.0 mm 0.01 in0.3 mm
08:30 AM 55.9°F13.3°C 55.0°F12.8°C 97% Calm Calm -- 30.08 in1018.6 mb - 0.00 in0.0 mm 0.01 in0.3 mm
08:45 AM 57.2°F14.0°C 56.3°F13.5°C 97% Calm Calm -- 30.08 in1018.6 mb - 0.00 in0.0 mm 0.01 in0.3 mm
09:00 AM 57.6°F14.2°C 56.8°F13.8°C 97% 4.6 mph SW7.4 kmh SW 5.8 mph9.3 kmh 30.09 in1019.0 mb - 0.00 in0.0 mm 0.01 in0.3 mm
09:15 AM 58.1°F14.5°C 57.3°F14.1°C 97% 4.6 mph SW7.4 kmh SW 5.8 mph9.3 kmh 30.08 in1018.6 mb - 0.00 in0.0 mm 0.01 in0.3 mm
09:30 AM 58.5°F14.7°C 57.6°F14.2°C 97% Calm Calm -- 30.08 in1018.6 mb - 0.00 in0.0 mm 0.01 in0.3 mm
09:45 AM 58.4°F14.7°C 57.3°F14.1°C 96% 1.2 mph WSW1.9 kmh WSW 3.5 mph5.6 kmh 30.09 in1019.0 mb - 0.00 in0.0 mm 0.01 in0.3 mm
10:00 AM 58.7°F14.8°C 57.6°F14.2°C 96% Calm Calm -- 30.09 in1019.0 mb - 0.00 in0.0 mm 0.01 in0.3 mm
10:15 AM 59.4°F15.2°C 58.2°F14.6°C 96% 4.6 mph WSW7.4 kmh WSW 5.8 mph9.3 kmh 30.09 in1019.0 mb - 0.00 in0.0 mm 0.01 in0.3 mm
10:30 AM 60.0°F15.6°C 58.6°F14.8°C 95% 3.5 mph WSW5.6 kmh WSW 4.6 mph7.4 kmh 30.09 in1019.0 mb - 0.00 in0.0 mm 0.01 in0.3 mm
10:45 AM 60.7°F15.9°C 58.7°F14.8°C 93% 4.6 mph WSW7.4 kmh WSW 4.6 mph7.4 kmh 30.10 in1019.3 mb - 0.00 in0.0 mm 0.01 in0.3 mm
11:00 AM 60.0°F15.6°C 57.7°F14.3°C 92% 3.5 mph WSW5.6 kmh WSW 3.5 mph5.6 kmh 30.10 in1019.3 mb - 0.00 in0.0 mm 0.01 in0.3 mm
11:15 AM 60.5°F15.8°C 58.1°F14.5°C 92% 4.6 mph WSW7.4 kmh WSW 8.1 mph13.0 kmh 30.10 in1019.3 mb - 0.00 in0.0 mm 0.01 in0.3 mm
11:30 AM 60.4°F15.8°C 57.7°F14.3°C 91% 3.5 mph WSW5.6 kmh WSW 5.8 mph9.3 kmh 30.10 in1019.3 mb - 0.00 in0.0 mm 0.01 in0.3 mm
11:45 AM 60.6°F15.9°C 57.3°F14.1°C 89% Calm Calm -- 30.09 in1019.0 mb - 0.00 in0.0 mm 0.01 in0.3 mm
12:00 PM 61.5°F16.4°C 58.2°F14.6°C 89% 3.5 mph SW5.6 kmh SW 3.5 mph5.6 kmh 30.09 in1019.0 mb - 0.00 in0.0 mm 0.01 in0.3 mm
12:15 PM 62.8°F17.1°C 57.5°F14.2°C 83% 4.6 mph SW7.4 kmh SW 5.8 mph9.3 kmh 30.09 in1019.0 mb - 0.00 in0.0 mm 0.01 in0.3 mm
12:30 PM 64.4°F18.0°C 57.7°F14.3°C 79% 4.6 mph S7.4 kmh S 5.8 mph9.3 kmh 30.09 in1019.0 mb - 0.00 in0.0 mm 0.01 in0.3 mm
12:45 PM 65.3°F18.5°C 56.8°F13.8°C 74% 1.2 mph S1.9 kmh S 3.5 mph5.6 kmh 30.09 in1019.0 mb - 0.00 in0.0 mm 0.01 in0.3 mm
01:00 PM 63.5°F17.5°C 56.9°F13.8°C 79% 3.5 mph WSW5.6 kmh WSW 3.5 mph5.6 kmh 30.09 in1019.0 mb - 0.00 in0.0 mm 0.01 in0.3 mm
01:15 PM 62.2°F16.8°C 56.9°F13.8°C 83% 3.5 mph WSW5.6 kmh WSW 4.6 mph7.4 kmh 30.09 in1019.0 mb - 0.00 in0.0 mm 0.01 in0.3 mm
01:30 PM 61.7°F16.5°C 56.2°F13.4°C 82% 4.6 mph WSW7.4 kmh WSW 6.9 mph11.1 kmh 30.10 in1019.3 mb - 0.00 in0.0 mm 0.01 in0.3 mm
01:45 PM 62.1°F16.7°C 57.6°F14.2°C 85% 5.8 mph SW9.3 kmh SW 9.2 mph14.8 kmh 30.10 in1019.3 mb - 0.00 in0.0 mm 0.01 in0.3 mm
02:00 PM 61.8°F16.6°C 57.6°F14.2°C 86% 4.6 mph SW7.4 kmh SW 4.6 mph7.4 kmh 30.09 in1019.0 mb - 0.00 in0.0 mm 0.01 in0.3 mm
02:15 PM 62.6°F17.0°C 58.1°F14.5°C 85% 6.9 mph S11.1 kmh S 8.1 mph13.0 kmh 30.09 in1019.0 mb - 0.00 in0.0 mm 0.01 in0.3 mm
02:30 PM 62.8°F17.1°C 57.5°F14.2°C 83% 3.5 mph SSW5.6 kmh SSW 3.5 mph5.6 kmh 30.09 in1019.0 mb - 0.00 in0.0 mm 0.01 in0.3 mm
02:45 PM 63.3°F17.4°C 57.3°F14.1°C 81% 4.6 mph S7.4 kmh S 4.6 mph7.4 kmh 30.08 in1018.6 mb - 0.00 in0.0 mm 0.01 in0.3 mm
03:00 PM 64.1°F17.8°C 57.8°F14.3°C 80% 4.6 mph SSW7.4 kmh SSW 5.8 mph9.3 kmh 30.07 in1018.3 mb - 0.00 in0.0 mm 0.01 in0.3 mm
03:15 PM 63.9°F17.7°C 57.6°F14.2°C 80% 4.6 mph S7.4 kmh S 5.8 mph9.3 kmh 30.07 in1018.3 mb - 0.00 in0.0 mm 0.01 in0.3 mm
03:30 PM 64.0°F17.8°C 57.8°F14.3°C 80% 5.8 mph SSW9.3 kmh SSW 6.9 mph11.1 kmh 30.06 in1017.9 mb - 0.00 in0.0 mm 0.01 in0.3 mm
03:45 PM 63.3°F17.4°C 57.4°F14.1°C 81% 4.6 mph SW7.4 kmh SW 5.8 mph9.3 kmh 30.06 in1017.9 mb - 0.00 in0.0 mm 0.01 in0.3 mm
04:00 PM 62.6°F17.0°C 57.3°F14.1°C 83% 5.8 mph SSW9.3 kmh SSW 8.1 mph13.0 kmh 30.06 in1017.9 mb - 0.00 in0.0 mm 0.01 in0.3 mm
04:15 PM 62.5°F16.9°C 57.6°F14.2°C 84% 4.6 mph S7.4 kmh S 6.9 mph11.1 kmh 30.06 in1017.9 mb - 0.00 in0.0 mm 0.01 in0.3 mm
04:30 PM 62.1°F16.7°C 57.5°F14.2°C 85% 2.3 mph S3.7 kmh S 3.5 mph5.6 kmh 30.05 in1017.6 mb - 0.00 in0.0 mm 0.01 in0.3 mm
04:45 PM 61.9°F16.6°C 57.0°F13.9°C 84% 5.8 mph SSW9.3 kmh SSW 8.1 mph13.0 kmh 30.05 in1017.6 mb - 0.00 in0.0 mm 0.01 in0.3 mm
05:00 PM 61.4°F16.3°C 56.8°F13.8°C 85% 1.2 mph S1.9 kmh S 2.3 mph3.7 kmh 30.05 in1017.6 mb - 0.00 in0.0 mm 0.01 in0.3 mm
05:15 PM 60.9°F16.1°C 56.7°F13.7°C 86% 2.3 mph S3.7 kmh S 3.5 mph5.6 kmh 30.05 in1017.6 mb - 0.00 in0.0 mm 0.01 in0.3 mm
05:30 PM 60.3°F15.7°C 56.4°F13.6°C 87% 1.2 mph S1.9 kmh S 3.5 mph5.6 kmh 30.04 in1017.3 mb - 0.00 in0.0 mm 0.01 in0.3 mm
05:45 PM 59.7°F15.4°C 56.1°F13.4°C 88% 1.2 mph S1.9 kmh S 6.9 mph11.1 kmh 30.04 in1017.3 mb - 0.00 in0.0 mm 0.01 in0.3 mm
06:00 PM 59.0°F15.0°C 55.8°F13.2°C 89% 6.9 mph S11.1 kmh S 6.9 mph11.1 kmh 30.05 in1017.6 mb - 0.00 in0.0 mm 0.01 in0.3 mm
06:15 PM 58.3°F14.6°C 55.4°F13.0°C 90% 4.6 mph SSE7.4 kmh SSE 5.8 mph9.3 kmh 30.05 in1017.6 mb - 0.00 in0.0 mm 0.01 in0.3 mm
06:30 PM 57.6°F14.2°C 55.0°F12.8°C 91% 3.5 mph SE5.6 kmh SE 3.5 mph5.6 kmh 30.05 in1017.6 mb - 0.00 in0.0 mm 0.01 in0.3 mm
06:45 PM 57.1°F13.9°C 54.8°F12.7°C 92% 5.8 mph SSE9.3 kmh SSE 6.9 mph11.1 kmh 30.05 in1017.6 mb - 0.00 in0.0 mm 0.01 in0.3 mm
07:00 PM 56.7°F13.7°C 54.7°F12.6°C 93% 5.8 mph SSE9.3 kmh SSE 6.9 mph11.1 kmh 30.05 in1017.6 mb - 0.00 in0.0 mm 0.01 in0.3 mm
07:15 PM 56.3°F13.5°C 54.3°F12.4°C 93% 5.8 mph SE9.3 kmh SE 8.1 mph13.0 kmh 30.04 in1017.3 mb - 0.00 in0.0 mm 0.01 in0.3 mm
07:30 PM 56.1°F13.4°C 54.1°F12.3°C 93% 5.8 mph SE9.3 kmh SE 9.2 mph14.8 kmh 30.04 in1017.3 mb - 0.00 in0.0 mm 0.01 in0.3 mm
07:45 PM 55.9°F13.3°C 54.2°F12.3°C 94% 4.6 mph SSE7.4 kmh SSE 6.9 mph11.1 kmh 30.04 in1017.3 mb - 0.00 in0.0 mm 0.01 in0.3 mm
08:00 PM 55.7°F13.2°C 54.0°F12.2°C 94% 5.8 mph SE9.3 kmh SE 8.1 mph13.0 kmh 30.04 in1017.3 mb - 0.00 in0.0 mm 0.01 in0.3 mm
08:15 PM 55.4°F13.0°C 53.7°F12.1°C 94% 5.8 mph SE9.3 kmh SE 5.8 mph9.3 kmh 30.04 in1017.3 mb - 0.00 in0.0 mm 0.01 in0.3 mm
08:30 PM 56.0°F13.3°C 54.6°F12.6°C 95% 5.8 mph SE9.3 kmh SE 8.1 mph13.0 kmh 30.04 in1017.3 mb - 0.00 in0.0 mm 0.01 in0.3 mm
08:45 PM 56.1°F13.4°C 54.7°F12.6°C 95% 5.8 mph SSE9.3 kmh SSE 6.9 mph11.1 kmh 30.04 in1017.3 mb - 0.00 in0.0 mm 0.01 in0.3 mm
09:00 PM 56.0°F13.3°C 54.6°F12.6°C 95% 6.9 mph SSE11.1 kmh SSE 6.9 mph11.1 kmh 30.04 in1017.3 mb - 0.00 in0.0 mm 0.01 in0.3 mm
09:15 PM 56.3°F13.5°C 55.2°F12.9°C 96% 4.6 mph SSE7.4 kmh SSE 8.1 mph13.0 kmh 30.04 in1017.3 mb - 0.00 in0.0 mm 0.01 in0.3 mm
09:30 PM 56.5°F13.6°C 55.4°F13.0°C 96% 5.8 mph S9.3 kmh S 8.1 mph13.0 kmh 30.04 in1017.3 mb - 0.00 in0.0 mm 0.01 in0.3 mm
09:45 PM 56.5°F13.6°C 55.4°F13.0°C 96% 9.2 mph S14.8 kmh S 9.2 mph14.8 kmh 30.04 in1017.3 mb - 0.00 in0.0 mm 0.01 in0.3 mm
10:00 PM 55.8°F13.2°C 54.7°F12.6°C 96% 4.6 mph SSE7.4 kmh SSE 8.1 mph13.0 kmh 30.04 in1017.3 mb - 0.00 in0.0 mm 0.01 in0.3 mm
10:15 PM 55.6°F13.1°C 54.5°F12.5°C 96% 5.8 mph SSE9.3 kmh SSE 6.9 mph11.1 kmh 30.03 in1016.9 mb - 0.00 in0.0 mm 0.01 in0.3 mm
10:30 PM 55.5°F13.1°C 54.3°F12.4°C 96% 1.2 mph SSE1.9 kmh SSE 3.5 mph5.6 kmh 30.03 in1016.9 mb - 0.00 in0.0 mm 0.01 in0.3 mm
10:45 PM 55.4°F13.0°C 54.3°F12.4°C 96% 4.6 mph S7.4 kmh S 6.9 mph11.1 kmh 30.03 in1016.9 mb - 0.00 in0.0 mm 0.01 in0.3 mm
11:00 PM 55.4°F13.0°C 54.3°F12.4°C 96% 2.3 mph S3.7 kmh S 5.8 mph9.3 kmh 30.03 in1016.9 mb - 0.00 in0.0 mm 0.04 in1.0 mm
11:15 PM 55.4°F13.0°C 54.3°F12.4°C 96% 3.5 mph S5.6 kmh S 4.6 mph7.4 kmh 30.03 in1016.9 mb - 0.00 in0.0 mm 0.04 in1.0 mm
11:30 PM 55.4°F13.0°C 54.6°F12.6°C 97% 4.6 mph S7.4 kmh S 4.6 mph7.4 kmh 30.02 in1016.6 mb - 0.00 in0.0 mm 0.04 in1.0 mm
11:45 PM 55.3°F12.9°C 54.5°F12.5°C 97% 3.5 mph S5.6 kmh S 4.6 mph7.4 kmh 30.02 in1016.6 mb - 0.00 in0.0 mm 0.04 in1.0 mm